createdAt,value
2019-03-31T00:01:08.061Z,15.27
2019-03-31T00:02:13.551Z,15.83
2019-03-31T00:03:21.696Z,18.63
2019-03-31T00:04:31.230Z,12.57
2019-03-31T00:05:39.243Z,12.93
2019-03-31T00:06:47.555Z,13.73
2019-03-31T00:07:55.741Z,11.60
2019-03-31T00:09:05.877Z,14.50
2019-03-31T00:10:14.275Z,18.37
2019-03-31T00:11:22.904Z,12.63
2019-03-31T00:12:31.083Z,13.47
2019-03-31T00:13:39.588Z,12.87
2019-03-31T00:14:47.703Z,13.30
2019-03-31T00:15:55.871Z,13.57
2019-03-31T00:17:04.140Z,14.27
2019-03-31T00:18:12.365Z,17.67
2019-03-31T00:19:20.651Z,12.13
2019-03-31T00:20:28.921Z,13.70
2019-03-31T00:21:37.338Z,15.37
2019-03-31T00:22:46.008Z,14.77
2019-03-31T00:23:54.232Z,11.73
2019-03-31T00:25:02.178Z,13.00
2019-03-31T00:26:10.395Z,18.10
2019-03-31T00:27:19.117Z,16.27
2019-03-31T00:28:27.505Z,13.43
2019-03-31T00:29:35.879Z,14.73
2019-03-31T00:30:44.492Z,12.57
2019-03-31T00:31:52.990Z,14.87
2019-03-31T00:33:01.354Z,15.20
2019-03-31T00:34:09.376Z,18.37
2019-03-31T00:35:17.858Z,13.57
2019-03-31T00:36:25.974Z,12.93
2019-03-31T00:37:34.129Z,14.17
2019-03-31T00:38:42.331Z,13.03
2019-03-31T00:39:50.533Z,11.23
2019-03-31T00:40:58.681Z,13.30
2019-03-31T00:42:07.004Z,18.13
2019-03-31T00:43:15.711Z,17.90
2019-03-31T00:44:23.703Z,16.27
2019-03-31T00:45:31.857Z,19.47
2019-03-31T00:46:40.045Z,16.60
2019-03-31T00:47:48.463Z,15.97
2019-03-31T00:48:56.442Z,17.17
2019-03-31T00:50:05.765Z,17.40
2019-03-31T00:51:13.951Z,19.10
2019-03-31T00:52:22.253Z,14.60
2019-03-31T00:53:30.731Z,17.03
2019-03-31T00:54:38.606Z,18.00
2019-03-31T00:55:47.168Z,15.57
2019-03-31T00:56:55.810Z,15.50
2019-03-31T00:58:04.064Z,20.43
2019-03-31T00:59:12.407Z,18.83
2019-03-31T01:00:41.693Z,17.03
2019-03-31T01:01:52.240Z,15.57
2019-03-31T01:03:00.722Z,19.73
2019-03-31T01:04:09.386Z,22.47
2019-03-31T01:05:17.737Z,22.17
2019-03-31T01:06:26.491Z,19.80
2019-03-31T01:07:34.438Z,12.30
2019-03-31T01:08:42.518Z,15.60
2019-03-31T01:09:51.669Z,19.40
2019-03-31T01:11:00.382Z,15.50
2019-03-31T01:12:09.030Z,18.47
2019-03-31T01:13:17.332Z,19.43
2019-03-31T01:14:26.854Z,14.33
2019-03-31T01:15:36.092Z,13.47
2019-03-31T01:16:44.141Z,15.10
2019-03-31T01:17:52.438Z,16.50
2019-03-31T01:19:00.515Z,13.87
2019-03-31T01:20:11.045Z,18.50
2019-03-31T01:21:19.290Z,19.37
2019-03-31T01:22:27.193Z,15.60
2019-03-31T01:23:35.603Z,19.87
2019-03-31T01:24:43.789Z,13.60
2019-03-31T01:25:52.529Z,18.53
2019-03-31T01:27:00.683Z,19.50
2019-03-31T01:28:08.893Z,23.17
2019-03-31T01:29:17.893Z,20.63
2019-03-31T01:30:26.062Z,21.87
2019-03-31T01:31:34.456Z,18.17
2019-03-31T01:32:42.498Z,19.73
2019-03-31T01:33:50.986Z,17.50
2019-03-31T01:34:59.097Z,20.20
2019-03-31T01:36:08.019Z,20.33
2019-03-31T01:37:19.937Z,23.50
2019-03-31T01:38:26.669Z,15.83
2019-03-31T01:39:35.433Z,14.07
2019-03-31T01:40:43.291Z,14.43
2019-03-31T01:41:51.771Z,15.90
2019-03-31T01:42:59.863Z,17.47
2019-03-31T01:44:08.220Z,20.03
2019-03-31T01:45:16.802Z,18.10
2019-03-31T01:46:25.598Z,18.27
2019-03-31T01:47:33.599Z,18.57
2019-03-31T01:48:41.740Z,18.97
2019-03-31T01:49:50.034Z,19.40
2019-03-31T01:50:58.247Z,15.40
2019-03-31T01:52:07.634Z,20.60
2019-03-31T01:53:16.081Z,21.17
2019-03-31T01:54:24.113Z,24.93
2019-03-31T01:55:32.269Z,19.07
2019-03-31T01:56:40.555Z,19.27
2019-03-31T01:57:48.965Z,20.63
2019-03-31T01:58:57.078Z,17.53
2019-03-31T02:00:12.339Z,17.33
2019-03-31T02:01:21.147Z,25.40
2019-03-31T02:02:31.088Z,14.63
2019-03-31T02:03:39.073Z,19.20
2019-03-31T02:04:47.276Z,17.87
2019-03-31T02:05:55.790Z,19.13
2019-03-31T02:07:04.130Z,22.17
2019-03-31T02:08:12.179Z,24.20
2019-03-31T02:09:20.691Z,22.90
2019-03-31T02:10:29.090Z,15.63
2019-03-31T02:11:37.287Z,13.00
2019-03-31T02:12:45.433Z,22.43
2019-03-31T02:13:53.908Z,22.87
2019-03-31T02:15:01.954Z,15.63
2019-03-31T02:16:09.987Z,18.00
2019-03-31T02:17:18.645Z,21.47
2019-03-31T02:18:26.702Z,17.43
2019-03-31T02:19:34.987Z,15.57
2019-03-31T02:20:43.183Z,16.47
2019-03-31T02:21:51.284Z,13.17
2019-03-31T02:22:59.684Z,17.70
2019-03-31T02:24:07.613Z,13.77
2019-03-31T02:25:16.043Z,19.60
2019-03-31T02:26:24.383Z,17.47
2019-03-31T02:27:32.545Z,14.70
2019-03-31T02:28:40.686Z,13.57
2019-03-31T02:29:48.679Z,13.97
2019-03-31T02:30:57.360Z,13.23
2019-03-31T02:32:22.517Z,11.83
2019-03-31T02:33:15.372Z,18.67
2019-03-31T02:34:23.525Z,19.10
2019-03-31T02:35:31.570Z,11.13
2019-03-31T02:36:39.615Z,13.17
2019-03-31T02:37:48.040Z,12.00
2019-03-31T02:38:56.434Z,13.57
2019-03-31T02:40:05.945Z,13.73
2019-03-31T02:41:14.200Z,15.10
2019-03-31T02:42:22.373Z,14.20
2019-03-31T02:43:30.645Z,13.17
2019-03-31T02:44:39.000Z,13.30
2019-03-31T02:45:47.165Z,13.53
2019-03-31T02:46:56.086Z,14.07
2019-03-31T02:48:04.450Z,11.00
2019-03-31T02:49:12.982Z,13.03
2019-03-31T02:50:40.378Z,16.47
2019-03-31T02:51:48.663Z,14.53
2019-03-31T02:52:56.943Z,15.70
2019-03-31T02:54:05.488Z,12.03
2019-03-31T02:55:13.993Z,18.37
2019-03-31T02:56:23.835Z,14.70
2019-03-31T02:57:32.622Z,11.30
2019-03-31T02:58:41.153Z,13.93
2019-03-31T02:59:51.278Z,13.70
2019-03-31T03:01:00.885Z,13.50
2019-03-31T03:02:11.344Z,13.87
2019-03-31T03:03:20.249Z,17.20
2019-03-31T03:04:32.783Z,17.77
2019-03-31T03:05:43.510Z,15.43
2019-03-31T03:06:54.421Z,10.33
2019-03-31T03:08:03.760Z,14.07
2019-03-31T03:09:11.991Z,14.10
2019-03-31T03:10:21.847Z,16.23
2019-03-31T03:11:33.084Z,13.63
2019-03-31T03:12:44.606Z,10.70
2019-03-31T03:13:53.721Z,12.70
2019-03-31T03:15:05.139Z,12.97
2019-03-31T03:16:19.755Z,14.90
2019-03-31T03:17:28.230Z,15.73
2019-03-31T03:18:36.334Z,17.30
2019-03-31T03:19:44.394Z,12.80
2019-03-31T03:20:52.342Z,10.23
2019-03-31T03:22:00.766Z,13.37
2019-03-31T03:23:08.988Z,12.07
2019-03-31T03:24:17.244Z,13.90
2019-03-31T03:25:25.414Z,15.47
2019-03-31T03:26:33.498Z,11.10
2019-03-31T03:27:41.725Z,11.73
2019-03-31T03:28:49.882Z,11.50
2019-03-31T03:29:58.080Z,11.20
2019-03-31T03:31:13.934Z,10.60
2019-03-31T03:32:16.065Z,14.30
2019-03-31T03:33:24.043Z,15.57
2019-03-31T03:34:32.008Z,14.90
2019-03-31T03:35:40.216Z,11.50
2019-03-31T03:36:48.678Z,13.90
2019-03-31T03:37:56.689Z,12.93
2019-03-31T03:39:07.420Z,13.87
2019-03-31T03:40:15.617Z,14.97
2019-03-31T03:41:23.692Z,17.90
2019-03-31T03:42:31.968Z,13.13
2019-03-31T03:43:54.070Z,12.27
2019-03-31T03:44:49.933Z,14.03
2019-03-31T03:45:58.334Z,13.47
2019-03-31T03:47:06.309Z,12.13
2019-03-31T03:48:14.278Z,12.50
2019-03-31T03:49:22.118Z,18.70
2019-03-31T03:50:30.403Z,15.47
2019-03-31T03:51:38.709Z,12.83
2019-03-31T03:52:46.786Z,12.20
2019-03-31T03:53:55.209Z,11.53
2019-03-31T03:55:03.211Z,11.97
2019-03-31T03:56:11.627Z,12.57
2019-03-31T03:57:19.812Z,15.97
2019-03-31T03:58:28.003Z,15.63
2019-03-31T03:59:36.322Z,17.63
2019-03-31T04:00:44.508Z,17.03
2019-03-31T04:01:52.393Z,14.80
2019-03-31T04:03:00.677Z,16.83
2019-03-31T04:04:08.845Z,14.20
2019-03-31T04:05:16.896Z,13.80
2019-03-31T04:06:25.091Z,20.83
2019-03-31T04:07:33.047Z,18.80
2019-03-31T04:08:41.399Z,17.47
2019-03-31T04:09:49.491Z,10.77
2019-03-31T04:11:10.703Z,13.97
2019-03-31T04:12:18.977Z,17.77
2019-03-31T04:13:26.866Z,20.97
2019-03-31T04:14:35.105Z,16.20
2019-03-31T04:15:43.381Z,15.00
2019-03-31T04:16:51.579Z,23.07
2019-03-31T04:17:59.659Z,15.07
2019-03-31T04:19:07.782Z,14.40
2019-03-31T04:20:15.874Z,14.60
2019-03-31T04:21:23.851Z,17.70
2019-03-31T04:22:31.957Z,17.57
2019-03-31T04:23:40.322Z,15.97
2019-03-31T04:24:48.515Z,12.80
2019-03-31T04:25:56.456Z,15.77
2019-03-31T04:27:04.570Z,12.47
2019-03-31T04:28:12.568Z,17.10
2019-03-31T04:29:20.650Z,20.60
2019-03-31T04:30:28.659Z,15.60
2019-03-31T04:31:36.843Z,18.10
2019-03-31T04:32:45.028Z,14.20
2019-03-31T04:33:53.626Z,17.50
2019-03-31T04:35:01.801Z,14.53
2019-03-31T04:36:10.026Z,15.47
2019-03-31T04:37:18.777Z,14.40
2019-03-31T04:38:26.746Z,19.80
2019-03-31T04:39:34.865Z,16.83
2019-03-31T04:40:43.594Z,16.13
2019-03-31T04:41:51.768Z,14.60
2019-03-31T04:43:00.091Z,12.77
2019-03-31T04:44:08.175Z,14.77
2019-03-31T04:45:16.560Z,15.03
2019-03-31T04:46:24.666Z,20.47
2019-03-31T04:47:32.764Z,18.67
2019-03-31T04:48:40.962Z,14.93
2019-03-31T04:49:48.914Z,15.47
2019-03-31T04:50:57.116Z,15.00
2019-03-31T04:52:05.762Z,17.03
2019-03-31T04:53:13.498Z,15.17
2019-03-31T04:54:21.762Z,19.83
2019-03-31T04:55:29.837Z,18.37
2019-03-31T04:56:38.198Z,17.93
2019-03-31T04:57:46.264Z,15.63
2019-03-31T04:58:54.332Z,16.30
2019-03-31T05:00:02.333Z,16.83
2019-03-31T05:01:10.339Z,15.77
2019-03-31T05:02:18.540Z,15.43
2019-03-31T05:03:26.573Z,17.87
2019-03-31T05:04:34.581Z,22.73
2019-03-31T05:05:42.495Z,13.13
2019-03-31T05:06:50.723Z,13.40
2019-03-31T05:07:58.803Z,15.37
2019-03-31T05:09:07.720Z,15.13
2019-03-31T05:10:15.894Z,12.30
2019-03-31T05:11:23.969Z,21.27
2019-03-31T05:12:32.018Z,22.63
2019-03-31T05:13:39.958Z,18.23
2019-03-31T05:14:48.138Z,15.00
2019-03-31T05:15:56.297Z,13.17
2019-03-31T05:17:04.609Z,12.83
2019-03-31T05:18:12.597Z,12.67
2019-03-31T05:19:20.729Z,15.07
2019-03-31T05:20:28.829Z,18.20
2019-03-31T05:21:36.895Z,20.00
2019-03-31T05:22:45.123Z,12.37
2019-03-31T05:23:53.138Z,12.90
2019-03-31T05:25:01.434Z,14.83
2019-03-31T05:26:09.749Z,11.27
2019-03-31T05:27:17.932Z,9.53
2019-03-31T05:28:25.954Z,17.63
2019-03-31T05:29:35.331Z,21.63
2019-03-31T05:30:43.560Z,14.50
2019-03-31T05:31:51.703Z,13.03
2019-03-31T05:32:59.800Z,11.53
2019-03-31T05:34:18.957Z,11.83
2019-03-31T05:35:18.477Z,10.27
2019-03-31T05:36:26.675Z,17.13
2019-03-31T05:37:34.772Z,18.63
2019-03-31T05:38:43.071Z,13.70
2019-03-31T05:39:51.138Z,10.13
2019-03-31T05:40:59.373Z,10.40
2019-03-31T05:42:07.590Z,11.27
2019-03-31T05:43:15.786Z,10.87
2019-03-31T05:44:23.826Z,17.13
2019-03-31T05:45:32.261Z,14.57
2019-03-31T05:46:40.678Z,17.20
2019-03-31T05:47:49.098Z,13.80
2019-03-31T05:48:57.398Z,14.27
2019-03-31T05:50:07.139Z,13.00
2019-03-31T05:51:15.131Z,14.97
2019-03-31T05:52:23.427Z,16.87
2019-03-31T05:53:31.399Z,17.97
2019-03-31T05:54:39.536Z,18.73
2019-03-31T05:55:47.667Z,15.47
2019-03-31T05:56:55.687Z,14.83
2019-03-31T05:58:03.846Z,10.37
2019-03-31T05:59:12.270Z,16.50
2019-03-31T06:00:39.624Z,13.77
2019-03-31T06:01:47.692Z,14.60
2019-03-31T06:02:55.716Z,17.43
2019-03-31T06:04:03.835Z,10.73
2019-03-31T06:05:12.217Z,9.47
2019-03-31T06:06:21.134Z,10.23
2019-03-31T06:07:29.316Z,15.97
2019-03-31T06:08:37.367Z,20.53
2019-03-31T06:09:45.448Z,13.53
2019-03-31T06:10:53.770Z,13.03
2019-03-31T06:12:01.841Z,9.70
2019-03-31T06:13:09.684Z,11.63
2019-03-31T06:14:17.850Z,13.23
2019-03-31T06:15:25.760Z,13.77
2019-03-31T06:16:33.952Z,16.37
2019-03-31T06:17:42.041Z,15.20
2019-03-31T06:18:50.341Z,13.20
2019-03-31T06:19:58.406Z,16.80
2019-03-31T06:21:06.801Z,14.37
2019-03-31T06:22:15.244Z,12.27
2019-03-31T06:23:23.484Z,15.67
2019-03-31T06:24:31.889Z,16.47
2019-03-31T06:25:40.201Z,15.37
2019-03-31T06:26:48.279Z,14.47
2019-03-31T06:27:56.768Z,11.03
2019-03-31T06:29:05.406Z,15.80
2019-03-31T06:30:14.244Z,12.73
2019-03-31T06:31:22.445Z,12.33
2019-03-31T06:32:30.673Z,18.07
2019-03-31T06:33:39.138Z,14.60
2019-03-31T06:34:48.074Z,13.33
2019-03-31T06:35:56.304Z,14.57
2019-03-31T06:37:04.393Z,10.20
2019-03-31T06:38:13.180Z,15.07
2019-03-31T06:39:21.270Z,14.03
2019-03-31T06:40:29.368Z,17.27
2019-03-31T06:41:37.681Z,16.10
2019-03-31T06:42:45.713Z,19.33
2019-03-31T06:43:53.955Z,13.10
2019-03-31T06:45:01.971Z,15.07
2019-03-31T06:46:10.495Z,14.00
2019-03-31T06:47:19.125Z,11.50
2019-03-31T06:48:27.431Z,16.10
2019-03-31T06:49:35.400Z,17.07
2019-03-31T06:50:43.706Z,15.87
2019-03-31T06:51:51.902Z,9.80
2019-03-31T06:52:59.998Z,8.93
2019-03-31T06:54:07.992Z,12.17
2019-03-31T06:55:16.614Z,10.20
2019-03-31T06:56:24.668Z,9.70
2019-03-31T06:57:32.800Z,15.27
2019-03-31T06:58:40.842Z,16.40
2019-03-31T06:59:48.786Z,10.13
2019-03-31T07:00:57.081Z,12.27
2019-03-31T07:02:05.286Z,10.07
2019-03-31T07:03:14.270Z,11.33
2019-03-31T07:04:22.569Z,13.13
2019-03-31T07:05:30.906Z,13.63
2019-03-31T07:06:39.094Z,14.47
2019-03-31T07:07:47.206Z,12.57
2019-03-31T07:08:55.706Z,11.53
2019-03-31T07:10:05.006Z,9.87
2019-03-31T07:11:13.294Z,10.97
2019-03-31T07:12:22.161Z,11.50
2019-03-31T07:13:30.213Z,11.33
2019-03-31T07:14:38.343Z,14.00
2019-03-31T07:15:46.383Z,11.73
2019-03-31T07:16:54.648Z,10.17
2019-03-31T07:18:02.909Z,10.20
2019-03-31T07:19:11.139Z,8.60
2019-03-31T07:20:19.887Z,8.73
2019-03-31T07:21:28.147Z,9.63
2019-03-31T07:22:36.373Z,15.07
2019-03-31T07:23:44.957Z,12.50
2019-03-31T07:24:53.074Z,7.97
2019-03-31T07:26:01.180Z,6.97
2019-03-31T07:27:09.743Z,10.40
2019-03-31T07:28:18.224Z,8.67
2019-03-31T07:29:26.402Z,9.10
2019-03-31T07:30:34.765Z,14.37
2019-03-31T07:31:43.067Z,11.13
2019-03-31T07:32:51.280Z,11.53
2019-03-31T07:33:59.685Z,11.53
2019-03-31T07:35:18.213Z,7.93
2019-03-31T07:36:21.810Z,10.33
2019-03-31T07:37:31.003Z,9.33
2019-03-31T07:38:39.847Z,11.67
2019-03-31T07:39:48.256Z,13.43
2019-03-31T07:40:56.880Z,7.60
2019-03-31T07:42:05.292Z,9.03
2019-03-31T07:43:14.090Z,7.60
2019-03-31T07:44:22.760Z,11.00
2019-03-31T07:45:31.145Z,7.93
2019-03-31T07:46:39.276Z,14.13
2019-03-31T07:47:47.496Z,11.90
2019-03-31T07:48:55.860Z,8.53
2019-03-31T07:50:06.668Z,7.13
2019-03-31T07:51:14.703Z,11.30
2019-03-31T07:52:23.105Z,12.30
2019-03-31T07:53:31.340Z,9.60
2019-03-31T07:54:39.534Z,13.83
2019-03-31T07:55:47.736Z,16.20
2019-03-31T07:56:55.826Z,11.83
2019-03-31T07:58:04.095Z,8.80
2019-03-31T07:59:12.392Z,11.67
2019-03-31T08:00:23.166Z,8.07
2019-03-31T08:01:49.185Z,10.40
2019-03-31T08:03:23.041Z,8.17
2019-03-31T08:04:44.501Z,11.23
2019-03-31T08:06:16.205Z,7.60
2019-03-31T08:07:38.859Z,9.07
2019-03-31T08:09:14.726Z,10.27
2019-03-31T08:10:33.227Z,9.17
2019-03-31T08:12:08.490Z,9.77
2019-03-31T08:13:35.852Z,8.80
2019-03-31T08:15:09.319Z,7.53
2019-03-31T08:16:40.004Z,9.87
2019-03-31T08:17:50.956Z,7.87
2019-03-31T08:19:25.796Z,8.30
2019-03-31T08:20:52.301Z,8.93
2019-03-31T08:22:24.291Z,7.93
2019-03-31T08:23:53.776Z,10.13
2019-03-31T08:25:21.637Z,10.30
2019-03-31T08:26:40.266Z,10.97
2019-03-31T08:28:11.545Z,11.10
2019-03-31T08:29:43.680Z,12.63
2019-03-31T08:31:13.602Z,9.27
2019-03-31T08:32:30.583Z,11.80
2019-03-31T08:33:58.985Z,8.03
2019-03-31T08:35:29.961Z,8.10
2019-03-31T08:36:41.938Z,10.33
2019-03-31T08:38:02.628Z,6.57
2019-03-31T08:39:31.786Z,8.30
2019-03-31T08:40:57.704Z,7.90
2019-03-31T08:42:06.770Z,9.70
2019-03-31T08:43:20.038Z,8.03
2019-03-31T08:44:28.339Z,9.43
2019-03-31T08:45:36.979Z,7.97
2019-03-31T08:46:45.583Z,7.87
2019-03-31T08:47:53.638Z,8.17
2019-03-31T08:49:01.731Z,8.97
2019-03-31T08:50:10.929Z,9.60
2019-03-31T08:51:19.460Z,12.13
2019-03-31T08:52:27.539Z,9.83
2019-03-31T08:53:35.882Z,6.43
2019-03-31T08:54:45.075Z,6.40
2019-03-31T08:55:53.319Z,7.13
2019-03-31T08:57:02.234Z,5.23
2019-03-31T08:58:10.243Z,7.53
2019-03-31T08:59:18.747Z,13.23
2019-03-31T09:00:34.869Z,9.80
2019-03-31T09:01:43.577Z,6.97
2019-03-31T09:02:51.647Z,7.27
2019-03-31T09:03:59.568Z,7.73
2019-03-31T09:05:09.877Z,7.47
2019-03-31T09:06:17.930Z,10.83
2019-03-31T09:07:26.742Z,8.90
2019-03-31T09:08:34.768Z,7.17
2019-03-31T09:09:42.630Z,7.60
2019-03-31T09:10:50.843Z,6.73
2019-03-31T09:11:58.966Z,6.43
2019-03-31T09:13:07.247Z,5.50
2019-03-31T09:14:15.347Z,10.53
2019-03-31T09:15:23.870Z,11.10
2019-03-31T09:16:31.994Z,5.17
2019-03-31T09:17:40.416Z,7.30
2019-03-31T09:18:48.639Z,7.40
2019-03-31T09:19:56.751Z,6.47
2019-03-31T09:21:04.716Z,5.03
2019-03-31T09:22:13.063Z,8.07
2019-03-31T09:23:21.151Z,10.73
2019-03-31T09:24:30.439Z,7.40
2019-03-31T09:25:38.435Z,6.60
2019-03-31T09:26:46.529Z,5.60
2019-03-31T09:27:54.630Z,8.63
2019-03-31T09:29:02.902Z,6.07
2019-03-31T09:30:13.149Z,7.80
2019-03-31T09:31:21.618Z,9.07
2019-03-31T09:32:29.683Z,9.00
2019-03-31T09:33:39.424Z,6.70
2019-03-31T09:34:48.569Z,6.00
2019-03-31T09:35:57.177Z,5.97
2019-03-31T09:37:05.423Z,6.80
2019-03-31T09:38:13.419Z,8.93
2019-03-31T09:39:21.828Z,9.37
2019-03-31T09:40:30.559Z,7.30
2019-03-31T09:41:38.583Z,5.17
2019-03-31T09:42:46.576Z,7.10
2019-03-31T09:43:54.576Z,6.10
2019-03-31T09:45:02.580Z,8.03
2019-03-31T09:46:10.763Z,8.30
2019-03-31T09:47:18.684Z,10.40
2019-03-31T09:48:26.870Z,10.80
2019-03-31T09:49:35.054Z,5.73
2019-03-31T09:50:43.051Z,7.20
2019-03-31T09:51:51.040Z,5.83
2019-03-31T09:52:59.362Z,5.83
2019-03-31T09:54:07.441Z,5.73
2019-03-31T09:55:16.405Z,6.13
2019-03-31T09:56:24.965Z,6.93
2019-03-31T09:57:33.070Z,8.57
2019-03-31T09:58:40.997Z,7.27
2019-03-31T09:59:49.107Z,8.33
2019-03-31T10:00:57.205Z,6.43
2019-03-31T10:02:05.436Z,5.60
2019-03-31T10:03:13.742Z,7.23
2019-03-31T10:04:21.992Z,10.93
2019-03-31T10:05:30.688Z,8.03
2019-03-31T10:06:38.814Z,7.63
2019-03-31T10:07:48.066Z,5.57
2019-03-31T10:08:56.494Z,4.87
2019-03-31T10:10:09.013Z,5.67
2019-03-31T10:11:16.839Z,8.47
2019-03-31T10:12:25.073Z,9.50
2019-03-31T10:13:33.413Z,5.27
2019-03-31T10:14:41.689Z,5.20
2019-03-31T10:15:49.745Z,6.37
2019-03-31T10:16:57.899Z,5.30
2019-03-31T10:18:06.424Z,4.10
2019-03-31T10:19:14.601Z,6.70
2019-03-31T10:20:22.658Z,7.93
2019-03-31T10:21:30.548Z,6.10
2019-03-31T10:22:38.660Z,6.03
2019-03-31T10:23:46.772Z,5.00
2019-03-31T10:24:54.798Z,4.67
2019-03-31T10:26:02.887Z,4.50
2019-03-31T10:27:11.023Z,5.47
2019-03-31T10:28:19.358Z,7.23
2019-03-31T10:29:27.773Z,7.60
2019-03-31T10:30:38.261Z,4.03
2019-03-31T10:31:46.637Z,4.05
2019-03-31T10:32:54.961Z,3.65
2019-03-31T10:34:03.523Z,3.50
2019-03-31T10:35:11.467Z,5.15
2019-03-31T10:36:20.059Z,5.60
2019-03-31T10:37:28.440Z,5.07
2019-03-31T10:38:36.680Z,4.12
2019-03-31T10:39:44.670Z,2.75
2019-03-31T10:40:52.770Z,2.80
2019-03-31T10:42:01.441Z,4.12
2019-03-31T10:43:09.472Z,3.27
2019-03-31T10:44:17.497Z,3.85
2019-03-31T10:45:25.869Z,2.75
2019-03-31T10:46:34.129Z,3.25
2019-03-31T10:47:42.187Z,3.60
2019-03-31T10:48:50.468Z,2.65
2019-03-31T10:49:58.763Z,2.37
2019-03-31T10:51:06.975Z,2.95
2019-03-31T10:52:16.068Z,2.02
2019-03-31T10:53:24.276Z,2.77
2019-03-31T10:54:32.494Z,2.52
2019-03-31T10:55:40.540Z,2.72
2019-03-31T10:56:48.832Z,2.35
2019-03-31T10:57:57.298Z,1.72
2019-03-31T10:59:05.332Z,2.95
2019-03-31T11:00:13.866Z,2.17
2019-03-31T11:01:21.731Z,1.35
2019-03-31T11:02:30.061Z,1.70
2019-03-31T11:03:38.407Z,1.45
2019-03-31T11:04:46.457Z,2.10
2019-03-31T11:05:54.578Z,1.45
2019-03-31T11:07:03.595Z,1.20
2019-03-31T11:08:12.517Z,1.55
2019-03-31T11:09:21.743Z,1.62
2019-03-31T11:10:30.456Z,1.47
2019-03-31T11:11:39.260Z,1.85
2019-03-31T11:12:50.684Z,2.22
2019-03-31T11:13:57.292Z,2.10
2019-03-31T11:15:09.283Z,1.52
2019-03-31T11:16:17.278Z,1.85
2019-03-31T11:17:25.407Z,1.42
2019-03-31T11:18:33.832Z,2.27
2019-03-31T11:19:41.853Z,1.80
2019-03-31T11:20:49.676Z,1.80
2019-03-31T11:22:08.287Z,1.67
2019-03-31T11:23:17.838Z,1.47
2019-03-31T11:24:26.144Z,2.47
2019-03-31T11:25:34.356Z,1.92
2019-03-31T11:26:42.906Z,2.80
2019-03-31T11:27:51.183Z,2.22
2019-03-31T11:28:59.230Z,2.25
2019-03-31T11:30:09.529Z,1.80
2019-03-31T11:31:18.118Z,1.92
2019-03-31T11:32:26.635Z,1.22
2019-03-31T11:33:34.944Z,2.00
2019-03-31T11:34:43.113Z,1.22
2019-03-31T11:35:51.341Z,1.70
2019-03-31T11:37:12.510Z,2.10
2019-03-31T11:38:08.942Z,1.70
2019-03-31T11:39:17.350Z,2.00
2019-03-31T11:40:25.912Z,2.17
2019-03-31T11:41:35.166Z,2.22
2019-03-31T11:42:43.493Z,1.65
2019-03-31T11:43:51.758Z,1.90
2019-03-31T11:44:59.943Z,2.12
2019-03-31T11:46:08.466Z,1.77
2019-03-31T11:47:16.867Z,1.90
2019-03-31T11:48:24.957Z,2.25
2019-03-31T11:49:33.248Z,1.87
2019-03-31T11:50:41.588Z,2.30
2019-03-31T11:51:50.162Z,2.35
2019-03-31T11:52:58.494Z,2.42
2019-03-31T11:54:07.038Z,2.77
2019-03-31T11:55:15.377Z,2.15
2019-03-31T11:56:23.585Z,2.00
2019-03-31T11:57:32.381Z,2.12
2019-03-31T11:58:40.379Z,2.15
2019-03-31T11:59:49.849Z,2.50
2019-03-31T12:00:58.271Z,1.75
2019-03-31T12:02:06.493Z,2.42
2019-03-31T12:03:15.019Z,2.02
2019-03-31T12:04:23.027Z,2.40
2019-03-31T12:05:31.330Z,2.40
2019-03-31T12:06:39.955Z,2.22
2019-03-31T12:07:48.494Z,2.70
2019-03-31T12:08:56.459Z,2.40
2019-03-31T12:10:07.132Z,2.52
2019-03-31T12:11:15.245Z,2.52
2019-03-31T12:12:23.582Z,3.02
2019-03-31T12:13:31.805Z,2.40
2019-03-31T12:14:40.411Z,3.37
2019-03-31T12:15:48.885Z,2.40
2019-03-31T12:16:57.227Z,2.22
2019-03-31T12:18:05.705Z,2.87
2019-03-31T12:19:13.941Z,2.27
2019-03-31T12:20:22.214Z,3.30
2019-03-31T12:21:30.787Z,3.77
2019-03-31T12:22:39.218Z,3.05
2019-03-31T12:23:47.501Z,4.28
2019-03-31T12:24:55.545Z,3.20
2019-03-31T12:26:03.616Z,2.87
2019-03-31T12:27:11.976Z,2.60
2019-03-31T12:28:20.322Z,2.02
2019-03-31T12:29:28.228Z,1.90
2019-03-31T12:30:36.729Z,2.55
2019-03-31T12:31:45.092Z,2.05
2019-03-31T12:32:53.171Z,1.75
2019-03-31T12:34:01.675Z,1.60
2019-03-31T12:35:10.870Z,1.80
2019-03-31T12:36:19.079Z,1.80
2019-03-31T12:37:41.341Z,1.92
2019-03-31T12:38:36.846Z,2.08
2019-03-31T12:39:45.317Z,1.30
2019-03-31T12:40:53.716Z,2.10
2019-03-31T12:42:01.998Z,2.12
2019-03-31T12:43:10.514Z,2.15
2019-03-31T12:44:18.654Z,1.90
2019-03-31T12:45:26.657Z,2.42
2019-03-31T12:46:34.730Z,2.62
2019-03-31T12:47:43.233Z,2.08
2019-03-31T12:48:51.924Z,1.52
2019-03-31T12:50:00.114Z,2.30
2019-03-31T12:51:08.507Z,2.08
2019-03-31T12:52:16.431Z,1.65
2019-03-31T12:53:24.573Z,1.65
2019-03-31T12:54:32.439Z,1.75
2019-03-31T12:55:40.516Z,1.72
2019-03-31T12:56:48.887Z,1.67
2019-03-31T12:57:56.809Z,1.92
2019-03-31T12:59:05.544Z,1.55
2019-03-31T13:00:13.925Z,1.75
2019-03-31T13:01:22.122Z,2.12
2019-03-31T13:02:29.981Z,1.90
2019-03-31T13:03:38.246Z,1.85
2019-03-31T13:04:46.834Z,1.32
2019-03-31T13:05:55.127Z,1.60
2019-03-31T13:07:03.433Z,2.27
2019-03-31T13:08:11.588Z,1.70
2019-03-31T13:09:19.671Z,1.80
2019-03-31T13:10:28.247Z,1.65
2019-03-31T13:11:36.333Z,1.47
2019-03-31T13:12:44.611Z,1.62
2019-03-31T13:13:52.783Z,1.67
2019-03-31T13:15:00.817Z,1.95
2019-03-31T13:16:09.344Z,1.50
2019-03-31T13:17:17.570Z,1.55
2019-03-31T13:18:27.912Z,1.82
2019-03-31T13:19:35.983Z,1.50
2019-03-31T13:20:44.236Z,2.17
2019-03-31T13:21:52.270Z,1.75
2019-03-31T13:23:00.371Z,1.90
2019-03-31T13:24:08.556Z,1.72
2019-03-31T13:25:16.969Z,1.87
2019-03-31T13:26:25.078Z,1.60
2019-03-31T13:27:33.063Z,2.17
2019-03-31T13:28:41.251Z,2.62
2019-03-31T13:29:49.126Z,2.75
2019-03-31T13:30:57.082Z,2.20
2019-03-31T13:32:05.445Z,2.20
2019-03-31T13:33:13.670Z,1.77
2019-03-31T13:34:21.606Z,2.50
2019-03-31T13:35:29.644Z,1.98
2019-03-31T13:36:37.790Z,2.20
2019-03-31T13:37:46.143Z,2.22
2019-03-31T13:38:54.470Z,2.65
2019-03-31T13:40:02.865Z,2.75
2019-03-31T13:41:10.915Z,2.42
2019-03-31T13:42:18.880Z,2.10
2019-03-31T13:43:27.112Z,2.27
2019-03-31T13:44:35.132Z,2.50
2019-03-31T13:45:43.269Z,2.25
2019-03-31T13:46:51.544Z,2.35
2019-03-31T13:47:59.494Z,2.08
2019-03-31T13:49:07.612Z,2.50
2019-03-31T13:50:16.617Z,2.72
2019-03-31T13:51:24.871Z,1.95
2019-03-31T13:52:33.368Z,1.92
2019-03-31T13:53:41.502Z,2.35
2019-03-31T13:54:49.634Z,2.58
2019-03-31T13:55:57.967Z,2.75
2019-03-31T13:57:07.049Z,2.40
2019-03-31T13:58:19.011Z,2.35
2019-03-31T13:59:26.025Z,2.33
2019-03-31T14:00:40.565Z,2.87
2019-03-31T14:01:48.868Z,2.12
2019-03-31T14:02:57.356Z,2.55
2019-03-31T14:04:05.818Z,2.83
2019-03-31T14:05:14.183Z,2.25
2019-03-31T14:06:22.399Z,1.47
2019-03-31T14:07:30.544Z,2.02
2019-03-31T14:08:38.640Z,2.70
2019-03-31T14:09:46.627Z,2.47
2019-03-31T14:10:54.877Z,1.90
2019-03-31T14:12:03.547Z,2.67
2019-03-31T14:13:11.886Z,2.62
2019-03-31T14:14:19.877Z,2.12
2019-03-31T14:15:28.384Z,2.30
2019-03-31T14:16:36.684Z,2.27
2019-03-31T14:17:44.852Z,1.80
2019-03-31T14:18:53.238Z,2.00
2019-03-31T14:20:01.200Z,2.30
2019-03-31T14:21:09.598Z,3.02
2019-03-31T14:22:17.984Z,2.05
2019-03-31T14:23:26.136Z,2.10
2019-03-31T14:24:35.389Z,1.62
2019-03-31T14:25:43.625Z,2.12
2019-03-31T14:26:52.419Z,1.80
2019-03-31T14:28:00.633Z,1.77
2019-03-31T14:29:09.122Z,2.42
2019-03-31T14:30:17.786Z,1.80
2019-03-31T14:31:26.021Z,2.08
2019-03-31T14:32:36.342Z,1.72
2019-03-31T14:33:44.714Z,2.72
2019-03-31T14:34:53.570Z,2.33
2019-03-31T14:36:01.730Z,1.87
2019-03-31T14:37:10.476Z,2.05
2019-03-31T14:38:18.470Z,2.65
2019-03-31T14:39:35.830Z,2.15
2019-03-31T14:41:07.569Z,2.15
2019-03-31T14:42:38.463Z,2.00
2019-03-31T14:44:17.462Z,2.55
2019-03-31T14:45:44.975Z,2.10
2019-03-31T14:47:09.712Z,1.98
2019-03-31T14:48:30.378Z,2.42
2019-03-31T14:50:06.031Z,2.10
2019-03-31T14:51:37.034Z,2.02
2019-03-31T14:52:56.944Z,1.85
2019-03-31T14:54:25.358Z,2.15
2019-03-31T14:55:44.174Z,1.82
2019-03-31T14:57:15.929Z,1.62
2019-03-31T14:58:36.208Z,1.55
2019-03-31T15:00:15.255Z,1.70
2019-03-31T15:01:37.989Z,1.72
2019-03-31T15:03:10.528Z,1.55
2019-03-31T15:04:32.569Z,1.77
2019-03-31T15:06:05.776Z,1.60
2019-03-31T15:07:43.418Z,2.17
2019-03-31T15:09:06.929Z,1.50
2019-03-31T15:10:38.107Z,1.60
2019-03-31T15:11:51.025Z,1.55
2019-03-31T15:13:22.768Z,2.22